Hlavní strana
METAR-TAF:

METAR-TAF

Letiště :

Kuej-lin, Čína

zeměpisná šířka: 25-20N, zeměpisná délka: 110-18E, výška: 166 m

Aktuální stav počasí

Zpráva byla vytvořena před 22 minutami, v 22:00 UTC
Severovýchodní vítr 4 kt, proměnlivý mezi severním a východním
Teplota 7°C
Vlhkost vzduchu 76%
Tlak 1030 hPa
Viditelnost: 5000 m
Polojasno ve výšce 2300 ft
Zataženo ve výšce 3300 ft
kouřmo

METAR: ZGKL 132200Z 05002MPS 010V080 5000 BR SCT023 OVC033 07/03 Q1030 NOSIG

Čas: 06:22 (22:22 UTC)

Předpověď počasí

Zpráva byla vytvořena před 7 hodinami a 13 minutami, v 15:09 UTC
Předpověď platná od 13 v 18 UTC do 14 v 18 UTC
Severovýchodní vítr 6 kt
Viditelnost: 6000 m
Polojasno ve výšce 3000 ft
Zataženo ve výšce 5000 ft

TAF: ZGKL 131509Z 1318/1418 05003MPS 6000 SCT030 OVC050 TX12/1407Z TN05/1322Z

Stav a předpovědi počasí z více než 4 000 letišť (zprávy METAR a TAF).

Červené a žluté tečky na mapě představují dostupné meteorologické stanice.

Když kurzor umístíte na tečku, zobrazí se název stanice.

Pak kliknutím zobrazíte stav a předpověď počasí.

Chcete-li změnit mapu, kliknutím na zelené tlačítko se znaménkem +mapu přiblížíte, kliknutím na zelené tlačítko se znaménkem – mapu oddálíte a kliknutím na zelené šipky přejdete na sousední mapy.


METAR-TAF: